createdAt,value
2019-02-06T00:00:41.849Z,44.50
2019-02-06T00:03:11.578Z,44.50
2019-02-06T00:05:39.805Z,44.50
2019-02-06T00:08:08.814Z,44.60
2019-02-06T00:10:37.109Z,44.70
2019-02-06T00:13:05.407Z,44.80
2019-02-06T00:15:33.947Z,44.80
2019-02-06T00:18:02.497Z,44.80
2019-02-06T00:20:31.120Z,44.80
2019-02-06T00:22:59.488Z,44.90
2019-02-06T00:25:27.703Z,44.80
2019-02-06T00:27:55.945Z,44.90
2019-02-06T00:30:25.355Z,44.80
2019-02-06T00:32:53.678Z,44.80
2019-02-06T00:35:25.791Z,44.80
2019-02-06T00:37:52.293Z,44.80
2019-02-06T00:40:20.524Z,44.90
2019-02-06T00:42:48.769Z,44.90
2019-02-06T00:45:17.010Z,44.90
2019-02-06T00:47:45.219Z,44.90
2019-02-06T00:50:15.454Z,44.90
2019-02-06T00:52:43.667Z,44.80
2019-02-06T00:55:13.647Z,44.80
2019-02-06T00:57:41.885Z,44.80
2019-02-06T01:00:14.918Z,44.80
2019-02-06T01:02:43.116Z,44.90
2019-02-06T01:05:13.908Z,44.80
2019-02-06T01:07:42.131Z,44.80
2019-02-06T01:10:13.013Z,44.80
2019-02-06T01:12:41.499Z,44.70
2019-02-06T01:15:11.220Z,44.80
2019-02-06T01:17:39.496Z,44.70
2019-02-06T01:20:09.956Z,44.70
2019-02-06T01:22:38.175Z,44.80
2019-02-06T01:25:08.616Z,44.70
2019-02-06T01:27:36.857Z,44.70
2019-02-06T01:30:11.960Z,44.70
2019-02-06T01:32:40.199Z,44.70
2019-02-06T01:35:10.972Z,44.70
2019-02-06T01:37:39.217Z,44.70
2019-02-06T01:40:09.891Z,44.70
2019-02-06T01:42:38.117Z,44.70
2019-02-06T01:45:09.616Z,44.80
2019-02-06T01:47:37.839Z,44.70
2019-02-06T01:50:09.794Z,44.70
2019-02-06T01:52:38.244Z,44.70
2019-02-06T01:55:08.859Z,44.60
2019-02-06T01:57:37.079Z,44.70
2019-02-06T02:00:20.076Z,44.70
2019-02-06T02:02:48.294Z,44.70
2019-02-06T02:05:18.552Z,44.60
2019-02-06T02:07:47.316Z,44.70
2019-02-06T02:10:15.536Z,44.70
2019-02-06T02:12:43.848Z,44.60
2019-02-06T02:15:18.172Z,44.60
2019-02-06T02:17:46.418Z,44.60
2019-02-06T02:20:17.208Z,44.60
2019-02-06T02:22:45.447Z,44.60
2019-02-06T02:25:13.736Z,44.60
2019-02-06T02:27:42.045Z,44.60
2019-02-06T02:30:15.658Z,44.60
2019-02-06T02:32:44.244Z,44.60
2019-02-06T02:35:12.509Z,44.60
2019-02-06T02:37:40.798Z,44.60
2019-02-06T02:40:10.955Z,44.60
2019-02-06T02:42:39.188Z,44.60
2019-02-06T02:45:10.439Z,44.60
2019-02-06T02:47:38.680Z,44.60
2019-02-06T02:50:09.325Z,44.60
2019-02-06T02:52:37.576Z,44.60
2019-02-06T02:55:10.832Z,44.60
2019-02-06T02:57:39.049Z,44.60
2019-02-06T03:00:13.996Z,44.70
2019-02-06T03:02:50.071Z,44.60
2019-02-06T03:05:19.896Z,44.60
2019-02-06T03:07:48.132Z,44.60
2019-02-06T03:10:16.351Z,44.60
2019-02-06T03:12:44.615Z,44.50
2019-02-06T03:15:13.211Z,44.60
2019-02-06T03:17:41.732Z,44.50
2019-02-06T03:20:12.085Z,44.60
2019-02-06T03:22:40.336Z,44.50
2019-02-06T03:25:10.767Z,44.60
2019-02-06T03:27:39.007Z,44.60
2019-02-06T03:30:10.929Z,44.60
2019-02-06T03:32:39.444Z,44.80
2019-02-06T03:35:08.048Z,44.80
2019-02-06T03:37:36.280Z,44.80
2019-02-06T03:40:07.595Z,44.80
2019-02-06T03:42:35.832Z,44.80
2019-02-06T03:45:06.832Z,44.90
2019-02-06T03:47:35.448Z,45.00
2019-02-06T03:50:04.460Z,45.00
2019-02-06T03:52:32.711Z,44.90
2019-02-06T03:55:00.933Z,44.90
2019-02-06T03:57:29.343Z,44.90
2019-02-06T03:59:57.560Z,44.90
2019-02-06T04:02:25.805Z,44.90
2019-02-06T04:04:54.321Z,44.80
2019-02-06T04:07:22.538Z,44.80
2019-02-06T04:09:51.008Z,44.90
2019-02-06T04:12:19.467Z,44.70
2019-02-06T04:14:47.697Z,44.70
2019-02-06T04:17:15.917Z,44.70
2019-02-06T04:19:44.185Z,44.70
2019-02-06T04:22:12.400Z,44.80
2019-02-06T04:24:40.647Z,44.70
2019-02-06T04:27:08.867Z,44.70
2019-02-06T04:29:37.149Z,44.70
2019-02-06T04:32:05.385Z,44.70
2019-02-06T04:34:33.634Z,44.70
2019-02-06T04:37:06.758Z,44.60
2019-02-06T04:39:32.425Z,44.60
2019-02-06T04:42:00.903Z,44.60
2019-02-06T04:44:29.348Z,44.60
2019-02-06T04:46:57.634Z,44.60
2019-02-06T04:49:25.852Z,44.60
2019-02-06T04:51:54.087Z,44.70
2019-02-06T04:54:22.581Z,44.60
2019-02-06T04:56:50.825Z,44.60
2019-02-06T04:59:19.045Z,44.60
2019-02-06T05:01:47.293Z,44.50
2019-02-06T05:04:15.740Z,44.70
2019-02-06T05:06:44.216Z,44.70
2019-02-06T05:09:12.706Z,44.70
2019-02-06T05:11:41.158Z,44.80
2019-02-06T05:14:09.367Z,44.80
2019-02-06T05:16:37.939Z,44.80
2019-02-06T05:19:06.160Z,44.80
2019-02-06T05:21:34.376Z,44.90
2019-02-06T05:24:02.615Z,44.70
2019-02-06T05:26:30.870Z,44.80
2019-02-06T05:28:59.109Z,44.70
2019-02-06T05:31:27.343Z,44.80
2019-02-06T05:33:55.583Z,44.80
2019-02-06T05:36:23.807Z,44.90
2019-02-06T05:38:52.044Z,44.80
2019-02-06T05:41:20.272Z,44.90
2019-02-06T05:43:48.511Z,44.80
2019-02-06T05:46:16.886Z,44.70
2019-02-06T05:48:45.142Z,44.70
2019-02-06T05:51:13.639Z,44.80
2019-02-06T05:53:41.878Z,44.70
2019-02-06T05:56:10.167Z,44.70
2019-02-06T05:58:38.384Z,44.70
2019-02-06T06:01:06.838Z,44.70
2019-02-06T06:03:35.388Z,44.70
2019-02-06T06:06:03.695Z,44.70
2019-02-06T06:08:31.899Z,44.70
2019-02-06T06:11:00.377Z,44.70
2019-02-06T06:13:28.621Z,44.70
2019-02-06T06:15:56.850Z,44.70
2019-02-06T06:18:25.117Z,44.70
2019-02-06T06:20:53.668Z,44.70
2019-02-06T06:23:21.920Z,44.70
2019-02-06T06:25:50.164Z,44.70
2019-02-06T06:28:18.393Z,44.70
2019-02-06T06:30:47.380Z,44.70
2019-02-06T06:33:15.736Z,44.70
2019-02-06T06:35:43.982Z,44.70
2019-02-06T06:38:12.373Z,44.70
2019-02-06T06:40:40.845Z,44.70
2019-02-06T06:43:09.093Z,44.70
2019-02-06T06:45:37.400Z,44.70
2019-02-06T06:48:05.615Z,44.70
2019-02-06T06:50:33.835Z,44.70
2019-02-06T06:53:02.075Z,44.70
2019-02-06T06:55:30.531Z,44.70
2019-02-06T06:57:59.720Z,44.70
2019-02-06T07:00:30.320Z,44.70
2019-02-06T07:02:58.680Z,44.70
2019-02-06T07:05:26.924Z,44.70
2019-02-06T07:07:55.400Z,44.70
2019-02-06T07:10:23.897Z,44.80
2019-02-06T07:12:52.135Z,44.80
2019-02-06T07:15:29.021Z,44.80
2019-02-06T07:17:57.243Z,44.90
2019-02-06T07:20:25.491Z,45.00
2019-02-06T07:22:53.763Z,44.90
2019-02-06T07:25:22.064Z,44.90
2019-02-06T07:27:50.296Z,44.90
2019-02-06T07:30:32.687Z,44.90
2019-02-06T07:33:00.952Z,45.00
2019-02-06T07:35:29.177Z,45.00
2019-02-06T07:37:58.005Z,44.90
2019-02-06T07:40:26.512Z,44.90
2019-02-06T07:42:54.967Z,44.80
2019-02-06T07:45:23.212Z,44.90
2019-02-06T07:47:51.427Z,44.90
2019-02-06T07:50:25.015Z,44.80
2019-02-06T07:52:53.408Z,44.80
2019-02-06T07:55:21.639Z,44.80
2019-02-06T07:57:49.901Z,44.80
2019-02-06T08:00:18.123Z,44.80
2019-02-06T08:02:46.346Z,44.80
2019-02-06T08:05:16.929Z,44.80
2019-02-06T08:07:45.151Z,44.80
2019-02-06T08:10:16.761Z,45.40
2019-02-06T08:12:44.988Z,44.70
2019-02-06T08:15:15.687Z,44.70
2019-02-06T08:17:43.989Z,44.80
2019-02-06T08:20:19.952Z,44.70
2019-02-06T08:22:48.187Z,44.70
2019-02-06T08:25:18.056Z,44.90
2019-02-06T08:27:46.305Z,44.80
2019-02-06T08:30:20.189Z,44.80
2019-02-06T08:32:48.416Z,44.80
2019-02-06T08:35:16.984Z,44.90
2019-02-06T08:37:45.247Z,44.90
2019-02-06T08:40:16.239Z,44.90
2019-02-06T08:42:44.480Z,44.90
2019-02-06T08:45:15.715Z,44.90
2019-02-06T08:47:44.000Z,45.00
2019-02-06T08:50:15.055Z,45.00
2019-02-06T08:52:43.447Z,45.10
2019-02-06T08:55:17.351Z,45.00
2019-02-06T08:57:45.592Z,45.00
2019-02-06T09:00:19.789Z,45.10
2019-02-06T09:02:48.033Z,45.00
2019-02-06T09:05:16.256Z,45.00
2019-02-06T09:07:44.843Z,45.00
2019-02-06T09:10:19.067Z,45.00
2019-02-06T09:12:47.320Z,45.00
2019-02-06T09:15:15.535Z,45.00
2019-02-06T09:17:43.753Z,45.00
2019-02-06T09:20:16.988Z,45.10
2019-02-06T09:22:45.481Z,45.10
2019-02-06T09:25:19.859Z,45.10
2019-02-06T09:27:48.323Z,45.10
2019-02-06T09:30:19.216Z,45.10
2019-02-06T09:32:47.672Z,45.10
2019-02-06T09:35:16.210Z,45.10
2019-02-06T09:37:44.703Z,45.00
2019-02-06T09:40:15.785Z,45.00
2019-02-06T09:42:44.004Z,45.00
2019-02-06T09:45:13.603Z,45.10
2019-02-06T09:47:41.911Z,45.10
2019-02-06T09:50:29.537Z,45.00
2019-02-06T09:52:57.743Z,45.00
2019-02-06T09:55:25.987Z,45.00
2019-02-06T09:57:54.212Z,45.10
2019-02-06T10:00:25.248Z,45.10
2019-02-06T10:02:53.508Z,45.10
2019-02-06T10:05:22.096Z,45.10
2019-02-06T10:07:50.319Z,45.10
2019-02-06T10:10:20.399Z,45.10
2019-02-06T10:12:48.846Z,45.20
2019-02-06T10:15:26.035Z,45.10
2019-02-06T10:17:54.987Z,45.10
2019-02-06T10:20:25.572Z,45.10
2019-02-06T10:22:53.787Z,45.10
2019-02-06T10:25:22.026Z,45.10
2019-02-06T10:27:50.245Z,45.20
2019-02-06T10:30:24.412Z,45.20
2019-02-06T10:32:52.890Z,45.10
2019-02-06T10:35:21.131Z,45.10
2019-02-06T10:37:49.396Z,45.10
2019-02-06T10:40:18.153Z,45.10
2019-02-06T10:42:46.455Z,45.10
2019-02-06T10:45:17.043Z,45.10
2019-02-06T10:47:45.333Z,45.10
2019-02-06T10:50:19.168Z,45.10
2019-02-06T10:52:48.391Z,45.10
2019-02-06T10:55:16.776Z,45.10
2019-02-06T10:57:45.056Z,45.10
2019-02-06T11:00:16.548Z,45.20
2019-02-06T11:02:44.930Z,45.20
2019-02-06T11:05:13.821Z,45.20
2019-02-06T11:07:42.042Z,45.00
2019-02-06T11:10:13.402Z,44.90
2019-02-06T11:12:41.627Z,44.90
2019-02-06T11:15:11.225Z,44.80
2019-02-06T11:17:39.444Z,44.70
2019-02-06T11:20:16.664Z,44.50
2019-02-06T11:22:44.915Z,44.50
2019-02-06T11:25:14.855Z,44.40
2019-02-06T11:27:43.092Z,44.20
2019-02-06T11:30:23.516Z,44.20
2019-02-06T11:32:52.029Z,44.10
2019-02-06T11:35:20.259Z,44.00
2019-02-06T11:37:48.606Z,44.00
2019-02-06T11:40:18.704Z,43.90
2019-02-06T11:42:46.955Z,43.80
2019-02-06T11:45:18.176Z,43.70
2019-02-06T11:47:46.846Z,43.70
2019-02-06T11:50:23.829Z,43.60
2019-02-06T11:52:52.905Z,43.60
2019-02-06T11:55:29.005Z,43.50
2019-02-06T11:57:57.239Z,43.50
2019-02-06T12:00:27.457Z,43.40
2019-02-06T12:02:55.683Z,43.40
2019-02-06T12:05:23.924Z,43.40
2019-02-06T12:07:52.163Z,43.30
2019-02-06T12:10:21.029Z,43.30
2019-02-06T12:12:49.313Z,43.30
2019-02-06T12:15:19.636Z,43.20
2019-02-06T12:17:47.881Z,43.30
2019-02-06T12:20:18.340Z,43.20
2019-02-06T12:22:46.584Z,43.10
2019-02-06T12:25:16.675Z,43.10
2019-02-06T12:27:45.960Z,43.10
2019-02-06T12:30:22.917Z,43.00
2019-02-06T12:32:52.199Z,43.00
2019-02-06T12:35:20.820Z,42.00
2019-02-06T12:37:49.121Z,43.00
2019-02-06T12:40:21.685Z,43.00
2019-02-06T12:42:47.390Z,42.90
2019-02-06T12:45:23.576Z,42.90
2019-02-06T12:47:52.177Z,43.00
2019-02-06T12:50:24.172Z,43.10
2019-02-06T12:52:52.547Z,43.10
2019-02-06T12:55:28.787Z,43.10
2019-02-06T12:57:57.062Z,43.10
2019-02-06T13:00:30.932Z,43.10
2019-02-06T13:03:00.066Z,43.10
2019-02-06T13:05:29.553Z,43.20
2019-02-06T13:07:57.884Z,43.20
2019-02-06T13:10:33.240Z,43.20
2019-02-06T13:12:56.181Z,43.30
2019-02-06T13:15:24.709Z,43.40
2019-02-06T13:17:53.337Z,43.50
2019-02-06T13:20:29.680Z,44.10
2019-02-06T13:22:58.261Z,43.60
2019-02-06T13:25:26.773Z,43.60
2019-02-06T13:27:55.314Z,43.60
2019-02-06T13:30:37.461Z,43.80
2019-02-06T13:33:07.445Z,44.60
2019-02-06T13:35:36.182Z,44.20
2019-02-06T13:38:04.560Z,44.20
2019-02-06T13:40:44.728Z,44.30
2019-02-06T13:43:02.926Z,44.30
2019-02-06T13:45:34.238Z,44.30
2019-02-06T13:48:02.565Z,44.30
2019-02-06T13:50:30.899Z,44.40
2019-02-06T13:52:59.508Z,44.30
2019-02-06T13:55:28.099Z,44.20
2019-02-06T13:57:56.687Z,44.30
2019-02-06T14:00:34.660Z,44.20
2019-02-06T14:03:02.947Z,44.30
2019-02-06T14:05:32.048Z,44.20
2019-02-06T14:08:02.502Z,44.30
2019-02-06T14:10:32.297Z,44.40
2019-02-06T14:13:01.014Z,44.40
2019-02-06T14:15:32.441Z,44.40
2019-02-06T14:18:00.699Z,44.40
2019-02-06T14:20:28.919Z,44.40
2019-02-06T14:23:03.170Z,44.40
2019-02-06T14:25:37.434Z,44.50
2019-02-06T14:28:20.379Z,44.60
2019-02-06T14:31:03.417Z,44.60
2019-02-06T14:33:34.920Z,44.50
2019-02-06T14:36:30.230Z,44.50
2019-02-06T14:39:16.797Z,44.60
2019-02-06T14:42:04.132Z,44.60
2019-02-06T14:45:02.249Z,44.50
2019-02-06T14:47:48.288Z,44.60
2019-02-06T14:50:22.788Z,44.60
2019-02-06T14:53:10.320Z,44.60
2019-02-06T14:55:41.844Z,44.80
2019-02-06T14:58:22.132Z,44.70
2019-02-06T15:01:02.307Z,44.70
2019-02-06T15:03:46.123Z,44.60
2019-02-06T15:06:37.104Z,44.70
2019-02-06T15:09:25.042Z,44.60
2019-02-06T15:11:56.544Z,44.60
2019-02-06T15:14:42.601Z,44.60
2019-02-06T15:17:37.740Z,44.70
2019-02-06T15:20:21.035Z,44.70
2019-02-06T15:22:55.027Z,44.70
2019-02-06T15:25:32.387Z,44.70
2019-02-06T15:28:20.236Z,44.60
2019-02-06T15:30:54.480Z,44.60
2019-02-06T15:33:34.346Z,44.70
2019-02-06T15:36:05.824Z,44.70
2019-02-06T15:38:57.524Z,44.80
2019-02-06T15:41:31.680Z,44.90
2019-02-06T15:44:05.600Z,44.80
2019-02-06T15:46:39.777Z,44.90
2019-02-06T15:49:23.060Z,44.90
2019-02-06T15:52:18.447Z,44.90
2019-02-06T15:54:52.803Z,44.90
2019-02-06T15:57:41.066Z,44.90
2019-02-06T16:00:18.597Z,44.90
2019-02-06T16:03:13.101Z,44.90
2019-02-06T16:05:46.241Z,44.90
2019-02-06T16:08:32.675Z,44.90
2019-02-06T16:11:07.043Z,44.90
2019-02-06T16:14:09.852Z,44.90
2019-02-06T16:17:11.412Z,44.90
2019-02-06T16:19:48.739Z,44.90
2019-02-06T16:22:48.783Z,44.90
2019-02-06T16:25:31.960Z,45.00
2019-02-06T16:28:03.448Z,45.00
2019-02-06T16:30:38.059Z,45.00
2019-02-06T16:33:15.242Z,44.90
2019-02-06T16:36:01.960Z,45.00
2019-02-06T16:38:39.085Z,44.90
2019-02-06T16:41:29.708Z,45.00
2019-02-06T16:44:13.196Z,45.00
2019-02-06T16:47:19.063Z,44.90
2019-02-06T16:50:14.869Z,44.90
2019-02-06T16:53:13.228Z,44.90
2019-02-06T16:56:03.897Z,44.90
2019-02-06T16:58:50.366Z,44.90
2019-02-06T17:01:41.103Z,44.90
2019-02-06T17:04:40.639Z,44.90
2019-02-06T17:07:17.817Z,44.90
2019-02-06T17:09:49.308Z,44.90
2019-02-06T17:12:29.805Z,44.90
2019-02-06T17:15:07.564Z,45.00
2019-02-06T17:17:39.391Z,45.00
2019-02-06T17:20:13.516Z,45.00
2019-02-06T17:22:45.011Z,44.90
2019-02-06T17:25:22.028Z,44.80
2019-02-06T17:28:11.432Z,44.80
2019-02-06T17:30:54.789Z,44.80
2019-02-06T17:33:31.746Z,44.90
2019-02-06T17:36:09.460Z,44.90
2019-02-06T17:39:00.308Z,44.90
2019-02-06T17:41:31.876Z,44.90
2019-02-06T17:44:09.340Z,44.80
2019-02-06T17:46:43.531Z,44.90
2019-02-06T17:49:32.697Z,44.80
2019-02-06T17:52:13.408Z,44.80
2019-02-06T17:54:50.838Z,44.70
2019-02-06T17:57:19.072Z,44.70
2019-02-06T17:59:47.307Z,44.60
2019-02-06T18:02:15.583Z,44.70
2019-02-06T18:04:44.043Z,44.70
2019-02-06T18:07:12.269Z,44.70
2019-02-06T18:09:41.004Z,44.80
2019-02-06T18:12:09.250Z,44.80
2019-02-06T18:14:37.472Z,45.00
2019-02-06T18:17:05.716Z,45.00
2019-02-06T18:19:38.457Z,45.10
2019-02-06T18:22:06.873Z,45.10
2019-02-06T18:24:35.104Z,45.30
2019-02-06T18:27:03.339Z,45.20
2019-02-06T18:29:31.560Z,45.20
2019-02-06T18:32:00.028Z,45.20
2019-02-06T18:34:28.265Z,45.20
2019-02-06T18:36:56.883Z,45.20
2019-02-06T18:42:00.152Z,45.20
2019-02-06T18:44:38.776Z,45.10
2019-02-06T18:50:52.950Z,45.20
2019-02-06T18:53:40.984Z,45.20
2019-02-06T18:56:28.652Z,45.20
2019-02-06T18:59:16.728Z,45.20
2019-02-06T19:02:04.665Z,45.00
2019-02-06T19:04:52.441Z,45.30
2019-02-06T19:07:41.829Z,45.20
2019-02-06T19:10:29.582Z,45.30
2019-02-06T19:13:17.313Z,45.20
2019-02-06T19:16:04.988Z,45.00
2019-02-06T19:18:52.640Z,45.20
2019-02-06T19:21:42.058Z,45.30
2019-02-06T19:24:29.786Z,45.30
2019-02-06T19:27:17.477Z,45.10
2019-02-06T19:30:24.626Z,45.20
2019-02-06T19:33:12.676Z,45.20
2019-02-06T19:35:53.729Z,45.10
2019-02-06T19:38:34.807Z,45.20
2019-02-06T19:41:15.512Z,45.20
2019-02-06T19:43:56.287Z,45.00
2019-02-06T19:46:36.512Z,45.00
2019-02-06T19:49:17.403Z,44.90
2019-02-06T19:51:58.583Z,45.20
2019-02-06T19:54:39.670Z,45.20
2019-02-06T19:57:20.977Z,45.80
2019-02-06T20:00:01.942Z,45.00
2019-02-06T20:02:42.757Z,45.30
2019-02-06T20:05:23.889Z,45.20
2019-02-06T20:08:05.068Z,44.80
2019-02-06T20:10:45.904Z,45.50
2019-02-06T20:13:27.078Z,45.40
2019-02-06T20:16:07.767Z,45.50
2019-02-06T20:18:48.495Z,45.40
2019-02-06T20:21:29.489Z,45.50
2019-02-06T20:24:10.771Z,45.50
2019-02-06T20:26:52.216Z,45.50
2019-02-06T20:29:33.073Z,45.40
2019-02-06T20:32:13.602Z,45.40
2019-02-06T20:34:52.324Z,45.40
2019-02-06T20:37:40.227Z,45.60
2019-02-06T20:40:47.323Z,45.70
2019-02-06T20:43:35.077Z,45.70
2019-02-06T20:46:24.735Z,45.60
2019-02-06T20:49:12.403Z,45.70
2019-02-06T20:52:00.060Z,45.90
2019-02-06T20:54:47.736Z,45.80
2019-02-06T20:57:35.438Z,45.60
2019-02-06T21:00:42.741Z,45.80
2019-02-06T21:03:30.420Z,45.30
2019-02-06T21:06:18.112Z,45.80
2019-02-06T21:09:26.614Z,45.90
2019-02-06T21:12:06.904Z,45.90
2019-02-06T21:14:47.839Z,45.50
2019-02-06T21:17:28.516Z,46.00
2019-02-06T21:20:09.695Z,46.00
2019-02-06T21:22:51.167Z,46.10
2019-02-06T21:25:32.544Z,46.10
2019-02-06T21:28:13.384Z,45.60
2019-02-06T21:30:54.500Z,46.00
2019-02-06T21:33:35.389Z,46.00
2019-02-06T21:36:16.711Z,46.10
2019-02-06T21:38:57.786Z,46.20
2019-02-06T21:41:39.064Z,46.80
2019-02-06T21:44:20.116Z,46.10
2019-02-06T21:47:01.088Z,45.70
2019-02-06T21:49:41.968Z,45.90
2019-02-06T21:52:23.160Z,46.10
2019-02-06T21:55:04.084Z,46.10
2019-02-06T21:57:44.969Z,46.20
2019-02-06T22:00:25.988Z,46.10
2019-02-06T22:03:06.605Z,46.10
2019-02-06T22:05:47.688Z,46.20
2019-02-06T22:08:28.464Z,46.20
2019-02-06T22:11:09.728Z,46.20
2019-02-06T22:13:55.312Z,46.10
2019-02-06T22:16:32.620Z,46.30
2019-02-06T22:19:13.587Z,46.30
2019-02-06T22:21:54.796Z,46.40
2019-02-06T22:24:35.889Z,46.40
2019-02-06T22:27:16.048Z,46.40
2019-02-06T22:29:57.161Z,46.30
2019-02-06T22:32:37.393Z,46.30
2019-02-06T22:35:18.263Z,46.20
2019-02-06T22:37:58.800Z,46.30
2019-02-06T22:40:39.593Z,46.40
2019-02-06T22:43:20.265Z,46.40
2019-02-06T22:46:01.332Z,46.40
2019-02-06T22:48:41.860Z,46.30
2019-02-06T22:51:22.153Z,46.20
2019-02-06T22:54:03.068Z,46.20
2019-02-06T22:56:43.261Z,46.20
2019-02-06T22:59:24.451Z,45.60
2019-02-06T23:02:05.177Z,46.10
2019-02-06T23:07:12.396Z,46.10
2019-02-06T23:09:53.536Z,46.20
2019-02-06T23:12:33.893Z,46.20
2019-02-06T23:15:14.809Z,46.10
2019-02-06T23:17:55.847Z,46.00
2019-02-06T23:20:36.140Z,46.30
2019-02-06T23:23:17.176Z,46.10
2019-02-06T23:25:58.021Z,46.20
2019-02-06T23:28:38.769Z,46.00
2019-02-06T23:31:18.976Z,46.10
2019-02-06T23:33:59.597Z,46.10
2019-02-06T23:36:40.708Z,46.00
2019-02-06T23:39:21.667Z,46.00
2019-02-06T23:42:02.698Z,46.00
2019-02-06T23:44:43.565Z,46.00
2019-02-06T23:47:24.738Z,46.00
2019-02-06T23:50:05.346Z,45.90
2019-02-06T23:52:46.388Z,45.90
2019-02-06T23:55:26.958Z,45.90
2019-02-06T23:58:07.338Z,46.00
